createdAt,value
2023-03-29T00:01:36.157Z,61.50
2023-03-29T00:04:27.041Z,61.99
2023-03-29T00:07:13.660Z,62.95
2023-03-29T00:10:03.984Z,70.82
2023-03-29T00:12:51.954Z,69.68
2023-03-29T00:15:38.414Z,65.61
2023-03-29T00:18:25.252Z,62.82
2023-03-29T00:21:12.061Z,57.83
2023-03-29T00:24:00.003Z,55.36
2023-03-29T00:26:46.474Z,55.30
2023-03-29T00:29:33.415Z,55.67
2023-03-29T00:32:20.377Z,56.05
2023-03-29T00:35:08.513Z,57.88
2023-03-29T00:37:57.220Z,58.38
2023-03-29T00:40:46.597Z,58.99
2023-03-29T00:43:59.239Z,59.17
2023-03-29T00:46:45.939Z,60.13
2023-03-29T00:49:35.301Z,59.98
2023-03-29T00:52:22.141Z,60.83
2023-03-29T00:55:17.400Z,61.28
2023-03-29T00:58:09.350Z,64.69
2023-03-29T01:01:08.009Z,70.18
2023-03-29T01:04:17.823Z,70.23
2023-03-29T01:07:39.338Z,66.78
2023-03-29T01:10:49.088Z,63.65
2023-03-29T01:13:44.102Z,61.45
2023-03-29T01:16:32.833Z,56.61
2023-03-29T01:19:25.824Z,54.63
2023-03-29T01:22:41.960Z,54.79
2023-03-29T01:26:02.480Z,55.74
2023-03-29T01:29:27.970Z,57.24
2023-03-29T01:32:34.788Z,57.57
2023-03-29T01:35:36.490Z,58.77
2023-03-29T01:38:31.557Z,59.72
2023-03-29T01:41:18.238Z,60.14
2023-03-29T01:44:55.027Z,61.25
2023-03-29T01:47:55.331Z,65.41
2023-03-29T01:50:56.190Z,73.01
2023-03-29T01:53:59.830Z,66.94
2023-03-29T01:56:50.020Z,60.66
2023-03-29T01:59:42.196Z,52.46
2023-03-29T02:02:31.019Z,52.14
2023-03-29T02:05:19.208Z,53.65
2023-03-29T02:08:09.313Z,55.85
2023-03-29T02:10:55.930Z,56.84
2023-03-29T02:13:42.657Z,57.89
2023-03-29T02:16:36.540Z,59.60
2023-03-29T02:19:25.288Z,60.16
2023-03-29T02:22:14.676Z,59.93
2023-03-29T02:25:05.781Z,65.96
2023-03-29T02:27:53.506Z,71.81
2023-03-29T02:30:54.835Z,65.14
2023-03-29T02:34:07.225Z,57.35
2023-03-29T02:37:09.738Z,52.03
2023-03-29T02:39:58.960Z,52.54
2023-03-29T02:42:46.381Z,54.37
2023-03-29T02:45:36.121Z,55.77
2023-03-29T02:48:27.139Z,58.51
2023-03-29T02:51:25.914Z,58.96
2023-03-29T02:54:20.303Z,59.45
2023-03-29T02:57:07.216Z,60.70
2023-03-29T02:59:57.688Z,61.11
2023-03-29T03:02:44.079Z,64.03
2023-03-29T03:05:31.367Z,66.96
2023-03-29T03:08:18.219Z,68.94
2023-03-29T03:11:05.443Z,61.42
2023-03-29T03:13:51.996Z,53.53
2023-03-29T03:16:38.452Z,52.56
2023-03-29T03:19:25.335Z,54.46
2023-03-29T03:22:12.400Z,56.00
2023-03-29T03:24:59.025Z,57.11
2023-03-29T03:27:49.128Z,58.41
2023-03-29T03:30:35.896Z,59.16
2023-03-29T03:33:37.495Z,59.67
2023-03-29T03:36:46.704Z,60.42
2023-03-29T03:39:33.109Z,65.30
2023-03-29T03:42:20.985Z,70.94
2023-03-29T03:45:09.971Z,66.40
2023-03-29T03:48:14.919Z,61.51
2023-03-29T03:51:09.934Z,53.18
2023-03-29T03:53:56.168Z,52.52
2023-03-29T03:57:07.332Z,54.35
2023-03-29T04:00:02.468Z,56.56
2023-03-29T04:02:58.873Z,57.42
2023-03-29T04:05:46.638Z,59.38
2023-03-29T04:08:33.385Z,60.71
2023-03-29T04:11:39.699Z,60.81
2023-03-29T04:14:26.980Z,63.69
2023-03-29T04:17:39.379Z,69.85
2023-03-29T04:20:57.867Z,66.83
2023-03-29T04:23:46.062Z,63.05
2023-03-29T04:26:33.769Z,60.46
2023-03-29T04:29:30.443Z,56.34
2023-03-29T04:32:26.129Z,55.22
2023-03-29T04:35:19.409Z,56.88
2023-03-29T04:38:09.518Z,57.50
2023-03-29T04:40:56.158Z,58.65
2023-03-29T04:43:55.454Z,59.79
2023-03-29T04:46:45.873Z,60.19
2023-03-29T04:49:44.011Z,61.01
2023-03-29T04:52:36.783Z,64.16
2023-03-29T04:55:24.047Z,67.83
2023-03-29T04:58:44.739Z,68.36
2023-03-29T05:01:32.269Z,64.52
2023-03-29T05:04:18.825Z,61.41
2023-03-29T05:07:19.223Z,57.45
2023-03-29T05:10:08.643Z,55.64
2023-03-29T05:12:55.911Z,55.94
2023-03-29T05:15:43.162Z,57.51
2023-03-29T05:18:36.756Z,57.81
2023-03-29T05:21:25.764Z,59.35
2023-03-29T05:24:13.419Z,60.20
2023-03-29T05:27:12.238Z,61.13
2023-03-29T05:30:01.251Z,66.13
2023-03-29T05:33:05.305Z,70.83
2023-03-29T05:36:13.665Z,65.32
2023-03-29T05:39:06.467Z,62.10
2023-03-29T05:41:57.775Z,56.57
2023-03-29T05:44:54.623Z,54.19
2023-03-29T05:47:41.378Z,55.12
2023-03-29T05:50:28.094Z,55.48
2023-03-29T05:53:19.565Z,57.69
2023-03-29T05:56:08.445Z,60.25
2023-03-29T05:58:58.150Z,60.32
2023-03-29T06:01:47.969Z,62.83
2023-03-29T06:04:40.884Z,64.66
2023-03-29T06:07:51.358Z,63.31
2023-03-29T06:11:03.181Z,58.12
2023-03-29T06:14:09.673Z,55.45
2023-03-29T06:17:01.847Z,56.43
2023-03-29T06:19:48.399Z,59.45
2023-03-29T06:22:35.494Z,60.56
2023-03-29T06:25:22.254Z,62.59
2023-03-29T06:28:27.397Z,62.62
2023-03-29T06:31:19.109Z,62.10
2023-03-29T06:34:06.136Z,58.31
2023-03-29T06:37:15.748Z,57.53
2023-03-29T06:40:06.825Z,60.58
2023-03-29T06:43:00.369Z,58.33
2023-03-29T06:45:49.819Z,51.75
2023-03-29T06:48:40.932Z,43.10
2023-03-29T06:51:27.726Z,46.32
2023-03-29T06:54:14.949Z,40.87
2023-03-29T06:57:08.558Z,40.80
2023-03-29T06:59:55.300Z,37.78
2023-03-29T07:02:46.013Z,34.30
2023-03-29T07:05:35.703Z,35.08
2023-03-29T07:08:22.646Z,31.61
2023-03-29T07:11:19.807Z,32.44
2023-03-29T07:14:11.601Z,29.70
2023-03-29T07:16:58.267Z,28.99
2023-03-29T07:19:57.856Z,29.14
2023-03-29T07:23:13.628Z,27.96
2023-03-29T07:26:00.719Z,27.51
2023-03-29T07:28:48.124Z,26.91
2023-03-29T07:31:40.109Z,25.50
2023-03-29T07:35:04.628Z,24.66
2023-03-29T07:37:57.854Z,24.84
2023-03-29T07:40:44.712Z,24.38
2023-03-29T07:43:53.712Z,23.68
2023-03-29T07:46:44.383Z,23.21
2023-03-29T07:49:33.865Z,22.24
2023-03-29T07:52:21.044Z,21.25
2023-03-29T07:55:15.939Z,20.80
2023-03-29T07:58:21.918Z,20.96
2023-03-29T08:01:16.384Z,20.93
2023-03-29T08:04:27.063Z,22.31
2023-03-29T08:07:53.207Z,21.40
2023-03-29T08:10:58.926Z,20.19
2023-03-29T08:13:59.958Z,20.44
2023-03-29T08:16:51.839Z,20.82
2023-03-29T08:19:40.313Z,20.65
2023-03-29T08:22:40.651Z,21.04
2023-03-29T08:25:29.750Z,20.49
2023-03-29T08:28:17.918Z,20.70
2023-03-29T08:31:11.428Z,19.62
2023-03-29T08:33:59.607Z,20.34
2023-03-29T08:37:21.321Z,19.50
2023-03-29T08:40:18.675Z,19.82
2023-03-29T08:43:57.442Z,19.52
2023-03-29T08:47:02.257Z,19.37
2023-03-29T08:49:57.018Z,18.82
2023-03-29T08:52:57.019Z,19.44
2023-03-29T08:56:22.674Z,19.96
2023-03-29T08:59:35.323Z,18.64
2023-03-29T09:02:30.720Z,18.45
2023-03-29T09:05:33.863Z,18.73
2023-03-29T09:08:32.086Z,19.62
2023-03-29T09:11:24.469Z,18.38
2023-03-29T09:14:29.214Z,17.84
2023-03-29T09:17:52.594Z,17.91
2023-03-29T09:20:59.767Z,18.15
2023-03-29T09:24:26.467Z,18.67
2023-03-29T09:27:33.849Z,17.80
2023-03-29T09:31:01.089Z,17.19
2023-03-29T09:34:14.369Z,16.41
2023-03-29T09:37:32.896Z,16.10
2023-03-29T09:40:31.292Z,16.94
2023-03-29T09:43:32.768Z,17.13
2023-03-29T09:46:33.784Z,16.64
2023-03-29T09:49:26.275Z,16.54
2023-03-29T09:52:20.395Z,16.47
2023-03-29T09:55:34.138Z,16.32
2023-03-29T09:58:43.301Z,16.14
2023-03-29T10:01:45.022Z,15.87
2023-03-29T10:04:32.079Z,16.43
2023-03-29T10:07:22.951Z,16.17
2023-03-29T10:10:29.473Z,16.50
2023-03-29T10:13:27.751Z,16.50
2023-03-29T10:16:30.306Z,16.14
2023-03-29T10:19:34.215Z,15.57
2023-03-29T10:22:27.236Z,14.86
2023-03-29T10:25:17.555Z,14.70
2023-03-29T10:28:11.827Z,14.99
2023-03-29T10:31:01.221Z,14.21
2023-03-29T10:33:56.680Z,14.36
2023-03-29T10:37:05.630Z,14.04
2023-03-29T10:39:53.865Z,13.45
2023-03-29T10:42:49.378Z,13.54
2023-03-29T10:45:38.468Z,13.66
2023-03-29T10:48:30.108Z,13.63
2023-03-29T10:51:18.761Z,14.24
2023-03-29T10:54:13.107Z,14.61
2023-03-29T10:57:04.834Z,14.84
2023-03-29T11:00:04.203Z,14.40
2023-03-29T11:03:30.829Z,14.77
2023-03-29T11:06:31.950Z,15.42
2023-03-29T11:09:58.507Z,16.27
2023-03-29T11:13:22.840Z,17.14
2023-03-29T11:16:41.375Z,18.01
2023-03-29T11:20:12.088Z,18.43
2023-03-29T11:23:17.534Z,18.98
2023-03-29T11:26:19.390Z,19.50
2023-03-29T11:29:15.815Z,20.38
2023-03-29T11:32:17.472Z,21.19
2023-03-29T11:35:34.178Z,21.90
2023-03-29T11:38:35.027Z,22.69
2023-03-29T11:41:27.632Z,23.05
2023-03-29T11:44:30.815Z,23.58
2023-03-29T11:47:22.482Z,24.03
2023-03-29T11:50:22.982Z,24.94
2023-03-29T11:53:21.041Z,25.47
2023-03-29T11:56:18.861Z,26.15
2023-03-29T11:59:16.308Z,26.81
2023-03-29T12:02:24.619Z,26.81
2023-03-29T12:05:25.269Z,27.20
2023-03-29T12:08:17.861Z,27.29
2023-03-29T12:11:15.119Z,27.44
2023-03-29T12:14:12.654Z,27.77
2023-03-29T12:17:04.565Z,28.03
2023-03-29T12:20:27.773Z,28.48
2023-03-29T12:23:17.382Z,28.63
2023-03-29T12:26:20.842Z,29.00
2023-03-29T12:29:50.439Z,28.90
2023-03-29T12:32:48.454Z,28.96
2023-03-29T12:36:23.911Z,29.05
2023-03-29T12:39:39.890Z,28.71
2023-03-29T12:43:38.323Z,28.40
2023-03-29T12:47:03.216Z,28.64
2023-03-29T12:49:55.973Z,28.74
2023-03-29T12:52:42.361Z,28.87
2023-03-29T12:55:46.976Z,28.98
2023-03-29T12:59:06.037Z,29.47
2023-03-29T13:02:07.283Z,29.86
2023-03-29T13:04:57.690Z,30.88
2023-03-29T13:07:48.965Z,31.36
2023-03-29T13:10:41.926Z,31.72
2023-03-29T13:13:41.285Z,32.23
2023-03-29T13:16:35.373Z,32.54
2023-03-29T13:19:37.292Z,33.13
2023-03-29T13:22:51.261Z,33.38
2023-03-29T13:25:47.010Z,33.52
2023-03-29T13:29:34.153Z,33.43
2023-03-29T13:33:06.764Z,33.72
2023-03-29T13:36:03.254Z,33.95
2023-03-29T13:38:53.678Z,34.27
2023-03-29T13:41:40.567Z,34.17
2023-03-29T13:44:48.478Z,34.46
2023-03-29T13:47:54.973Z,34.83
2023-03-29T13:51:07.381Z,34.63
2023-03-29T13:54:08.710Z,34.64
2023-03-29T13:57:21.489Z,35.02
2023-03-29T14:00:19.617Z,35.22
2023-03-29T14:03:13.520Z,35.50
2023-03-29T14:06:02.494Z,35.46
2023-03-29T14:08:51.139Z,36.04
2023-03-29T14:11:37.965Z,36.37
2023-03-29T14:14:27.644Z,36.77
2023-03-29T14:17:23.870Z,37.35
2023-03-29T14:20:15.434Z,37.50
2023-03-29T14:23:10.251Z,37.69
2023-03-29T14:26:13.800Z,38.23
2023-03-29T14:29:03.935Z,38.31
2023-03-29T14:31:50.505Z,38.95
2023-03-29T14:34:38.583Z,39.03
2023-03-29T14:37:29.745Z,39.11
2023-03-29T14:40:20.224Z,39.31
2023-03-29T14:43:07.851Z,39.59
2023-03-29T14:45:54.333Z,39.83
2023-03-29T14:48:41.511Z,40.26
2023-03-29T14:51:30.471Z,40.31
2023-03-29T14:54:23.064Z,40.22
2023-03-29T14:57:17.952Z,40.13
2023-03-29T15:00:29.543Z,40.44
2023-03-29T15:03:16.692Z,40.87
2023-03-29T15:06:04.825Z,41.14
2023-03-29T15:09:04.442Z,40.96
2023-03-29T15:11:59.344Z,41.22
2023-03-29T15:14:49.562Z,41.69
2023-03-29T15:17:51.009Z,41.67
2023-03-29T15:20:40.943Z,42.32
2023-03-29T15:23:58.079Z,42.82
2023-03-29T15:26:44.481Z,42.90
2023-03-29T15:29:44.751Z,42.86
2023-03-29T15:32:35.280Z,42.83
2023-03-29T15:35:25.202Z,43.55
2023-03-29T15:38:12.893Z,43.56
2023-03-29T15:41:00.654Z,43.99
2023-03-29T15:43:47.108Z,44.10
2023-03-29T15:46:34.434Z,44.39
2023-03-29T15:49:21.120Z,44.41
2023-03-29T15:52:09.288Z,44.67
2023-03-29T15:55:00.010Z,44.87
2023-03-29T15:57:48.445Z,44.88
2023-03-29T16:00:39.327Z,45.12
2023-03-29T16:03:26.767Z,45.03
2023-03-29T16:06:17.137Z,45.23
2023-03-29T16:09:06.410Z,45.35
2023-03-29T16:11:52.760Z,46.21
2023-03-29T16:14:42.629Z,46.57
2023-03-29T16:17:30.392Z,46.60
2023-03-29T16:20:19.411Z,46.75
2023-03-29T16:23:08.844Z,46.71
2023-03-29T16:25:55.581Z,46.83
2023-03-29T16:28:42.873Z,47.19
2023-03-29T16:31:29.381Z,47.29
2023-03-29T16:34:20.468Z,47.35
2023-03-29T16:37:24.214Z,47.39
2023-03-29T16:40:16.887Z,47.24
2023-03-29T16:43:05.211Z,47.35
2023-03-29T16:45:53.114Z,47.48
2023-03-29T16:48:42.081Z,47.67
2023-03-29T16:51:29.394Z,47.64
2023-03-29T16:54:16.742Z,47.97
2023-03-29T16:57:03.505Z,48.04
2023-03-29T16:59:50.292Z,47.97
2023-03-29T17:02:48.971Z,47.80
2023-03-29T17:05:41.676Z,47.84
2023-03-29T17:08:28.250Z,48.10
2023-03-29T17:11:17.728Z,48.15
2023-03-29T17:14:04.360Z,48.15
2023-03-29T17:16:52.907Z,48.21
2023-03-29T17:19:39.402Z,48.34
2023-03-29T17:22:26.219Z,48.51
2023-03-29T17:25:12.682Z,48.52
2023-03-29T17:27:58.978Z,48.52
2023-03-29T17:30:45.955Z,48.66
2023-03-29T17:33:33.111Z,48.89
2023-03-29T17:36:23.296Z,49.31
2023-03-29T17:39:10.216Z,49.06
2023-03-29T17:41:58.956Z,49.34
2023-03-29T17:44:45.619Z,49.40
2023-03-29T17:47:32.278Z,49.66
2023-03-29T17:50:18.970Z,49.23
2023-03-29T17:53:06.694Z,49.52
2023-03-29T17:55:52.814Z,49.80
2023-03-29T17:58:39.057Z,50.29
2023-03-29T18:01:31.562Z,50.12
2023-03-29T18:04:21.075Z,50.17
2023-03-29T18:07:07.801Z,50.67
2023-03-29T18:10:08.666Z,50.33
2023-03-29T18:12:58.086Z,49.73
2023-03-29T18:15:44.647Z,49.80
2023-03-29T18:18:31.253Z,50.07
2023-03-29T18:21:19.709Z,49.91
2023-03-29T18:24:06.392Z,50.42
2023-03-29T18:26:53.426Z,50.22
2023-03-29T18:29:44.329Z,51.67
2023-03-29T18:32:30.696Z,51.10
2023-03-29T18:35:17.945Z,51.21
2023-03-29T18:38:05.089Z,51.13
2023-03-29T18:40:52.031Z,50.71
2023-03-29T18:43:40.122Z,50.72
2023-03-29T18:46:31.350Z,51.43
2023-03-29T18:49:21.966Z,52.00
2023-03-29T18:52:14.053Z,52.36
2023-03-29T18:55:01.367Z,51.69
2023-03-29T18:57:49.315Z,51.79
2023-03-29T19:00:37.836Z,52.28
2023-03-29T19:03:24.531Z,52.53
2023-03-29T19:06:19.813Z,51.98
2023-03-29T19:09:08.121Z,51.92
2023-03-29T19:11:59.812Z,52.01
2023-03-29T19:14:48.197Z,51.98
2023-03-29T19:17:35.358Z,51.64
2023-03-29T19:20:24.990Z,52.27
2023-03-29T19:23:12.000Z,53.13
2023-03-29T19:26:03.003Z,53.57
2023-03-29T19:28:52.683Z,52.70
2023-03-29T19:31:41.033Z,52.94
2023-03-29T19:34:31.505Z,52.28
2023-03-29T19:37:20.388Z,51.99
2023-03-29T19:40:10.618Z,52.29
2023-03-29T19:42:57.072Z,53.36
2023-03-29T19:45:45.819Z,52.19
2023-03-29T19:48:32.408Z,52.57
2023-03-29T19:51:18.979Z,53.17
2023-03-29T19:54:06.484Z,52.29
2023-03-29T19:56:56.670Z,52.48
2023-03-29T19:59:47.573Z,52.28
2023-03-29T20:02:35.614Z,52.59
2023-03-29T20:05:23.548Z,52.96
2023-03-29T20:08:53.571Z,52.64
2023-03-29T20:11:57.879Z,53.13
2023-03-29T20:15:00.547Z,52.87
2023-03-29T20:17:59.953Z,52.72
2023-03-29T20:20:56.413Z,52.84
2023-03-29T20:23:54.363Z,52.77
2023-03-29T20:26:44.949Z,52.82
2023-03-29T20:29:32.621Z,52.97
2023-03-29T20:32:21.754Z,52.97
2023-03-29T20:35:10.384Z,53.27
2023-03-29T20:37:56.922Z,53.14
2023-03-29T20:40:44.799Z,53.22
2023-03-29T20:43:40.606Z,53.28
2023-03-29T20:46:38.041Z,53.28
2023-03-29T20:49:27.824Z,53.27
2023-03-29T20:52:17.063Z,53.51
2023-03-29T20:55:17.356Z,53.49
2023-03-29T20:58:10.055Z,53.49
2023-03-29T21:01:01.498Z,53.43
2023-03-29T21:03:53.237Z,53.52
2023-03-29T21:06:44.664Z,53.68
2023-03-29T21:09:33.559Z,53.72
2023-03-29T21:12:24.415Z,53.92
2023-03-29T21:15:13.570Z,54.03
2023-03-29T21:18:03.662Z,54.25
2023-03-29T21:21:00.658Z,54.09
2023-03-29T21:23:47.412Z,54.45
2023-03-29T21:26:35.648Z,54.40
2023-03-29T21:29:28.584Z,54.44
2023-03-29T21:32:16.739Z,54.54
2023-03-29T21:35:04.017Z,54.74
2023-03-29T21:37:53.252Z,54.85
2023-03-29T21:40:39.818Z,55.01
2023-03-29T21:43:27.234Z,55.13
2023-03-29T21:46:16.490Z,55.31
2023-03-29T21:49:03.508Z,55.51
2023-03-29T21:51:52.011Z,55.37
2023-03-29T21:54:43.827Z,55.39
2023-03-29T21:57:30.555Z,55.45
2023-03-29T22:00:18.237Z,55.43
2023-03-29T22:03:05.517Z,55.61
2023-03-29T22:06:04.700Z,55.83
2023-03-29T22:08:52.567Z,55.93
2023-03-29T22:11:41.371Z,56.05
2023-03-29T22:14:30.128Z,56.21
2023-03-29T22:17:16.770Z,56.07
2023-03-29T22:20:11.142Z,56.16
2023-03-29T22:22:57.837Z,57.19
2023-03-29T22:25:44.104Z,56.54
2023-03-29T22:28:30.634Z,56.25
2023-03-29T22:31:20.685Z,56.40
2023-03-29T22:34:07.522Z,56.50
2023-03-29T22:36:54.330Z,56.65
2023-03-29T22:39:41.723Z,56.88
2023-03-29T22:42:31.120Z,56.93
2023-03-29T22:45:18.362Z,57.15
2023-03-29T22:48:06.218Z,56.98
2023-03-29T22:50:53.132Z,57.13
2023-03-29T22:53:39.600Z,57.24
2023-03-29T22:56:26.602Z,57.15
2023-03-29T22:59:12.998Z,57.03
2023-03-29T23:01:59.778Z,57.08
2023-03-29T23:04:46.995Z,57.20
2023-03-29T23:07:36.538Z,57.46
2023-03-29T23:10:28.212Z,57.43
2023-03-29T23:13:20.044Z,57.72
2023-03-29T23:16:07.043Z,57.38
2023-03-29T23:18:53.540Z,57.45
2023-03-29T23:21:39.723Z,57.86
2023-03-29T23:24:31.181Z,57.92
2023-03-29T23:27:19.529Z,57.90
2023-03-29T23:30:10.281Z,57.89
2023-03-29T23:32:57.500Z,58.05
2023-03-29T23:35:47.716Z,58.10
2023-03-29T23:38:40.760Z,58.14
2023-03-29T23:41:30.203Z,58.28
2023-03-29T23:44:22.883Z,58.44
2023-03-29T23:47:09.984Z,58.60
2023-03-29T23:50:00.576Z,58.67
2023-03-29T23:52:49.978Z,58.66
2023-03-29T23:55:39.774Z,58.73
2023-03-29T23:58:36.890Z,58.83
